sensor_id;sensor_type;location;lat;lon;timestamp;pressure;altitude;pressure_sealevel;temperature;humidity
71107;BME280;58763;47.982;11.516;2023-04-07T00:01:20;94135.97;;;2.74;61.37
71107;BME280;58763;47.982;11.516;2023-04-07T00:03:47;94137.63;;;2.75;61.52
71107;BME280;58763;47.982;11.516;2023-04-07T00:06:13;94142.03;;;2.69;61.47
71107;BME280;58763;47.982;11.516;2023-04-07T00:08:38;94141.84;;;2.59;62.43
71107;BME280;58763;47.982;11.516;2023-04-07T00:11:04;94146.41;;;2.47;62.03
71107;BME280;58763;47.982;11.516;2023-04-07T00:13:30;94145.63;;;2.35;62.70
71107;BME280;58763;47.982;11.516;2023-04-07T00:15:56;94144.69;;;2.41;62.36
71107;BME280;58763;47.982;11.516;2023-04-07T00:18:22;94143.03;;;2.52;62.11
71107;BME280;58763;47.982;11.516;2023-04-07T00:20:47;94146.59;;;2.57;62.00
71107;BME280;58763;47.982;11.516;2023-04-07T00:23:13;94142.91;;;2.58;62.62
71107;BME280;58763;47.982;11.516;2023-04-07T00:25:38;94142.66;;;2.60;62.23
71107;BME280;58763;47.982;11.516;2023-04-07T00:28:04;94135.94;;;2.57;61.81
71107;BME280;58763;47.982;11.516;2023-04-07T00:30:31;94138.28;;;2.54;61.31
71107;BME280;58763;47.982;11.516;2023-04-07T00:32:56;94141.75;;;2.54;60.80
71107;BME280;58763;47.982;11.516;2023-04-07T00:35:22;94137.59;;;2.47;61.69
71107;BME280;58763;47.982;11.516;2023-04-07T00:37:47;94128.06;;;2.51;61.46
71107;BME280;58763;47.982;11.516;2023-04-07T00:40:13;94132.38;;;2.52;61.79
71107;BME280;58763;47.982;11.516;2023-04-07T00:42:38;94127.81;;;2.52;62.55
71107;BME280;58763;47.982;11.516;2023-04-07T00:45:04;94126.34;;;2.45;62.86
71107;BME280;58763;47.982;11.516;2023-04-07T00:47:30;94123.47;;;2.35;63.14
71107;BME280;58763;47.982;11.516;2023-04-07T00:49:56;94126.84;;;2.30;63.34
71107;BME280;58763;47.982;11.516;2023-04-07T00:52:23;94123.16;;;2.20;63.16
71107;BME280;58763;47.982;11.516;2023-04-07T00:54:56;94124.66;;;2.27;62.87
71107;BME280;58763;47.982;11.516;2023-04-07T00:57:22;94126.84;;;2.30;62.78
71107;BME280;58763;47.982;11.516;2023-04-07T00:59:51;94123.97;;;2.20;63.64
71107;BME280;58763;47.982;11.516;2023-04-07T01:02:27;94116.31;;;2.24;63.07
71107;BME280;58763;47.982;11.516;2023-04-07T01:05:22;94119.56;;;2.26;62.66
71107;BME280;58763;47.982;11.516;2023-04-07T01:08:07;94110.16;;;2.23;62.92
71107;BME280;58763;47.982;11.516;2023-04-07T01:10:59;94109.72;;;2.26;62.79
71107;BME280;58763;47.982;11.516;2023-04-07T01:16:11;94114.41;;;2.36;62.40
71107;BME280;58763;47.982;11.516;2023-04-07T01:18:38;94109.06;;;2.36;62.41
71107;BME280;58763;47.982;11.516;2023-04-07T01:21:14;94110.94;;;2.35;62.77
71107;BME280;58763;47.982;11.516;2023-04-07T01:26:25;94103.88;;;2.29;62.93
71107;BME280;58763;47.982;11.516;2023-04-07T01:31:29;94113.84;;;2.34;63.52
71107;BME280;58763;47.982;11.516;2023-04-07T01:33:56;94100.03;;;2.37;63.64
71107;BME280;58763;47.982;11.516;2023-04-07T01:36:25;94102.69;;;2.37;63.99
71107;BME280;58763;47.982;11.516;2023-04-07T01:38:53;94102.81;;;2.42;63.47
71107;BME280;58763;47.982;11.516;2023-04-07T01:41:19;94099.28;;;2.53;62.72
71107;BME280;58763;47.982;11.516;2023-04-07T01:43:46;94100.41;;;2.57;62.87
71107;BME280;58763;47.982;11.516;2023-04-07T01:46:14;94093.88;;;2.64;63.52
71107;BME280;58763;47.982;11.516;2023-04-07T01:48:41;94092.13;;;2.70;62.29
71107;BME280;58763;47.982;11.516;2023-04-07T01:51:07;94099.22;;;2.64;62.90
71107;BME280;58763;47.982;11.516;2023-04-07T01:53:33;94093.31;;;2.62;63.03
71107;BME280;58763;47.982;11.516;2023-04-07T01:56:02;94096.38;;;2.54;63.57
71107;BME280;58763;47.982;11.516;2023-04-07T01:58:28;94097.84;;;2.62;63.77
71107;BME280;58763;47.982;11.516;2023-04-07T02:00:54;94097.38;;;2.65;64.03
71107;BME280;58763;47.982;11.516;2023-04-07T02:03:23;94101.94;;;2.81;63.59
71107;BME280;58763;47.982;11.516;2023-04-07T02:05:54;94100.03;;;2.93;63.64
71107;BME280;58763;47.982;11.516;2023-04-07T02:08:23;94092.66;;;3.00;63.47
71107;BME280;58763;47.982;11.516;2023-04-07T02:10:52;94093.63;;;3.11;63.63
71107;BME280;58763;47.982;11.516;2023-04-07T02:13:19;94097.13;;;3.11;64.06
71107;BME280;58763;47.982;11.516;2023-04-07T02:15:47;94096.09;;;3.29;63.90
71107;BME280;58763;47.982;11.516;2023-04-07T02:18:15;94100.06;;;3.43;64.17
71107;BME280;58763;47.982;11.516;2023-04-07T02:20:42;94102.47;;;3.44;64.50
71107;BME280;58763;47.982;11.516;2023-04-07T02:23:09;94099.38;;;3.53;64.65
71107;BME280;58763;47.982;11.516;2023-04-07T02:25:35;94101.66;;;3.61;64.29
71107;BME280;58763;47.982;11.516;2023-04-07T02:28:04;94094.91;;;3.75;64.52
71107;BME280;58763;47.982;11.516;2023-04-07T02:30:32;94095.06;;;3.85;64.65
71107;BME280;58763;47.982;11.516;2023-04-07T02:32:58;94098.06;;;3.88;64.65
71107;BME280;58763;47.982;11.516;2023-04-07T02:35:23;94088.81;;;3.96;65.25
71107;BME280;58763;47.982;11.516;2023-04-07T02:37:50;94098.13;;;3.93;65.58
71107;BME280;58763;47.982;11.516;2023-04-07T02:40:15;94087.34;;;3.88;66.12
71107;BME280;58763;47.982;11.516;2023-04-07T02:42:41;94092.41;;;3.85;66.18
71107;BME280;58763;47.982;11.516;2023-04-07T02:45:08;94095.31;;;3.83;66.36
71107;BME280;58763;47.982;11.516;2023-04-07T02:47:35;94093.94;;;3.64;69.53
71107;BME280;58763;47.982;11.516;2023-04-07T02:50:02;94092.00;;;3.60;70.73
71107;BME280;58763;47.982;11.516;2023-04-07T02:52:27;94082.78;;;3.67;70.91
71107;BME280;58763;47.982;11.516;2023-04-07T02:54:53;94089.31;;;3.76;70.60
71107;BME280;58763;47.982;11.516;2023-04-07T02:57:18;94081.38;;;3.81;71.21
71107;BME280;58763;47.982;11.516;2023-04-07T02:59:44;94084.13;;;3.86;71.10
71107;BME280;58763;47.982;11.516;2023-04-07T03:02:10;94079.13;;;3.73;71.94
71107;BME280;58763;47.982;11.516;2023-04-07T03:04:35;94076.19;;;3.75;72.17
71107;BME280;58763;47.982;11.516;2023-04-07T03:07:01;94074.94;;;3.61;73.15
71107;BME280;58763;47.982;11.516;2023-04-07T03:09:27;94077.34;;;3.62;73.25
71107;BME280;58763;47.982;11.516;2023-04-07T03:11:52;94073.81;;;3.57;73.65
71107;BME280;58763;47.982;11.516;2023-04-07T03:14:18;94063.25;;;3.67;73.68
71107;BME280;58763;47.982;11.516;2023-04-07T03:16:44;94064.94;;;3.73;73.15
71107;BME280;58763;47.982;11.516;2023-04-07T03:19:09;94059.59;;;3.73;73.54
71107;BME280;58763;47.982;11.516;2023-04-07T03:21:36;94067.06;;;3.71;73.62
71107;BME280;58763;47.982;11.516;2023-04-07T03:24:03;94064.13;;;3.72;73.13
71107;BME280;58763;47.982;11.516;2023-04-07T03:26:29;94061.16;;;3.69;73.60
71107;BME280;58763;47.982;11.516;2023-04-07T03:28:55;94060.56;;;3.67;74.05
71107;BME280;58763;47.982;11.516;2023-04-07T03:31:21;94060.72;;;3.77;74.28
71107;BME280;58763;47.982;11.516;2023-04-07T03:33:48;94061.53;;;3.77;74.11
71107;BME280;58763;47.982;11.516;2023-04-07T03:36:13;94052.69;;;3.77;74.04
71107;BME280;58763;47.982;11.516;2023-04-07T03:38:39;94051.94;;;3.81;73.93
71107;BME280;58763;47.982;11.516;2023-04-07T03:41:05;94057.78;;;3.78;74.04
71107;BME280;58763;47.982;11.516;2023-04-07T03:43:30;94049.38;;;3.70;74.59
71107;BME280;58763;47.982;11.516;2023-04-07T03:45:56;94048.91;;;3.73;74.59
71107;BME280;58763;47.982;11.516;2023-04-07T03:48:21;94043.75;;;3.88;73.46
71107;BME280;58763;47.982;11.516;2023-04-07T03:50:47;94038.72;;;3.91;73.56
71107;BME280;58763;47.982;11.516;2023-04-07T03:53:13;94038.47;;;3.93;73.51
71107;BME280;58763;47.982;11.516;2023-04-07T03:55:41;94047.03;;;3.95;73.78
71107;BME280;58763;47.982;11.516;2023-04-07T03:58:08;94037.34;;;3.89;73.95
71107;BME280;58763;47.982;11.516;2023-04-07T04:00:33;94036.03;;;3.91;73.86
71107;BME280;58763;47.982;11.516;2023-04-07T04:03:00;94037.75;;;3.81;74.47
71107;BME280;58763;47.982;11.516;2023-04-07T04:05:25;94035.66;;;3.83;74.74
71107;BME280;58763;47.982;11.516;2023-04-07T04:07:51;94032.31;;;3.71;74.94
71107;BME280;58763;47.982;11.516;2023-04-07T04:10:17;94027.06;;;3.81;74.71
71107;BME280;58763;47.982;11.516;2023-04-07T04:12:45;94032.03;;;3.72;74.53
71107;BME280;58763;47.982;11.516;2023-04-07T04:15:11;94028.34;;;3.57;75.60
71107;BME280;58763;47.982;11.516;2023-04-07T04:17:36;94036.03;;;3.53;76.10
71107;BME280;58763;47.982;11.516;2023-04-07T04:20:02;94036.47;;;3.62;75.37
71107;BME280;58763;47.982;11.516;2023-04-07T04:22:28;94028.28;;;3.52;75.77
71107;BME280;58763;47.982;11.516;2023-04-07T04:24:53;94029.72;;;3.59;75.78
71107;BME280;58763;47.982;11.516;2023-04-07T04:27:19;94031.66;;;3.64;75.72
71107;BME280;58763;47.982;11.516;2023-04-07T04:29:45;94025.50;;;3.63;75.33
71107;BME280;58763;47.982;11.516;2023-04-07T04:32:11;94030.47;;;3.55;75.57
71107;BME280;58763;47.982;11.516;2023-04-07T04:34:38;94019.72;;;3.49;76.29
71107;BME280;58763;47.982;11.516;2023-04-07T04:37:04;94024.06;;;3.56;76.37
71107;BME280;58763;47.982;11.516;2023-04-07T04:39:30;94021.94;;;3.58;76.22
71107;BME280;58763;47.982;11.516;2023-04-07T04:41:55;94021.53;;;3.66;76.30
71107;BME280;58763;47.982;11.516;2023-04-07T04:44:21;94021.19;;;3.62;75.99
71107;BME280;58763;47.982;11.516;2023-04-07T04:46:47;94016.09;;;3.61;76.61
71107;BME280;58763;47.982;11.516;2023-04-07T04:49:14;94013.34;;;3.56;76.99
71107;BME280;58763;47.982;11.516;2023-04-07T04:51:40;94005.34;;;3.56;77.24
71107;BME280;58763;47.982;11.516;2023-04-07T04:54:06;94004.78;;;3.54;78.09
71107;BME280;58763;47.982;11.516;2023-04-07T04:56:32;94009.19;;;3.43;78.79
71107;BME280;58763;47.982;11.516;2023-04-07T04:58:58;94018.88;;;3.49;78.60
71107;BME280;58763;47.982;11.516;2023-04-07T05:01:24;94013.22;;;3.45;78.44
71107;BME280;58763;47.982;11.516;2023-04-07T05:03:49;94009.50;;;3.46;78.91
71107;BME280;58763;47.982;11.516;2023-04-07T05:06:15;94008.84;;;3.56;78.66
71107;BME280;58763;47.982;11.516;2023-04-07T05:08:40;94013.34;;;3.56;78.82
71107;BME280;58763;47.982;11.516;2023-04-07T05:11:06;94008.09;;;3.61;78.24
71107;BME280;58763;47.982;11.516;2023-04-07T05:13:31;94003.94;;;3.70;78.22
71107;BME280;58763;47.982;11.516;2023-04-07T05:15:57;94014.22;;;3.78;78.17
71107;BME280;58763;47.982;11.516;2023-04-07T05:18:22;94007.16;;;3.72;78.41
71107;BME280;58763;47.982;11.516;2023-04-07T05:20:48;94012.22;;;3.68;78.38
71107;BME280;58763;47.982;11.516;2023-04-07T05:23:14;94014.63;;;3.70;78.63
71107;BME280;58763;47.982;11.516;2023-04-07T05:25:40;94008.91;;;3.61;78.23
71107;BME280;58763;47.982;11.516;2023-04-07T05:28:06;94007.09;;;3.67;78.59
71107;BME280;58763;47.982;11.516;2023-04-07T05:30:32;94007.09;;;3.67;78.77
71107;BME280;58763;47.982;11.516;2023-04-07T05:32:57;94013.19;;;3.62;78.35
71107;BME280;58763;47.982;11.516;2023-04-07T05:35:23;94009.13;;;3.60;78.28
71107;BME280;58763;47.982;11.516;2023-04-07T05:37:48;94008.91;;;3.61;78.07
71107;BME280;58763;47.982;11.516;2023-04-07T05:40:14;94009.19;;;3.65;78.30
71107;BME280;58763;47.982;11.516;2023-04-07T05:42:40;94016.75;;;3.68;77.99
71107;BME280;58763;47.982;11.516;2023-04-07T05:45:06;94012.50;;;3.72;77.93
71107;BME280;58763;47.982;11.516;2023-04-07T05:47:32;94013.03;;;3.69;77.80
71107;BME280;58763;47.982;11.516;2023-04-07T05:49:59;94009.28;;;3.70;77.40
71107;BME280;58763;47.982;11.516;2023-04-07T05:52:25;94004.66;;;3.65;77.90
71107;BME280;58763;47.982;11.516;2023-04-07T05:54:51;94000.69;;;3.68;78.12
71107;BME280;58763;47.982;11.516;2023-04-07T05:57:16;93999.47;;;3.75;77.61
71107;BME280;58763;47.982;11.516;2023-04-07T05:59:42;94003.56;;;3.83;77.16
71107;BME280;58763;47.982;11.516;2023-04-07T06:02:08;93996.47;;;3.93;77.02
71107;BME280;58763;47.982;11.516;2023-04-07T06:04:33;93997.84;;;3.96;75.95
71107;BME280;58763;47.982;11.516;2023-04-07T06:07:00;93999.28;;;4.03;76.12
71107;BME280;58763;47.982;11.516;2023-04-07T06:09:26;93991.00;;;4.05;76.39
71107;BME280;58763;47.982;11.516;2023-04-07T06:11:52;93987.31;;;4.11;75.94
71107;BME280;58763;47.982;11.516;2023-04-07T06:14:17;93984.09;;;4.09;75.70
71107;BME280;58763;47.982;11.516;2023-04-07T06:16:43;93985.94;;;4.08;75.96
71107;BME280;58763;47.982;11.516;2023-04-07T06:19:10;93988.63;;;4.08;75.73
71107;BME280;58763;47.982;11.516;2023-04-07T06:21:35;93978.72;;;4.09;75.45
71107;BME280;58763;47.982;11.516;2023-04-07T06:24:04;93974.25;;;4.14;75.32
71107;BME280;58763;47.982;11.516;2023-04-07T06:26:30;93984.41;;;4.12;74.91
71107;BME280;58763;47.982;11.516;2023-04-07T06:28:57;93979.00;;;4.07;75.24
71107;BME280;58763;47.982;11.516;2023-04-07T06:31:23;93966.66;;;4.06;74.88
71107;BME280;58763;47.982;11.516;2023-04-07T06:33:48;93971.72;;;4.03;75.47
71107;BME280;58763;47.982;11.516;2023-04-07T06:36:13;93977.06;;;4.03;75.75
71107;BME280;58763;47.982;11.516;2023-04-07T06:38:39;93978.78;;;4.14;75.03
71107;BME280;58763;47.982;11.516;2023-04-07T06:41:05;93981.66;;;4.29;75.01
71107;BME280;58763;47.982;11.516;2023-04-07T06:43:31;93981.72;;;4.39;74.37
71107;BME280;58763;47.982;11.516;2023-04-07T06:45:56;93978.06;;;4.45;74.23
71107;BME280;58763;47.982;11.516;2023-04-07T06:48:22;93976.28;;;4.56;74.11
71107;BME280;58763;47.982;11.516;2023-04-07T06:50:48;93968.34;;;4.66;73.55
71107;BME280;58763;47.982;11.516;2023-04-07T06:53:14;93962.72;;;4.67;72.73
71107;BME280;58763;47.982;11.516;2023-04-07T06:55:39;93961.69;;;4.68;72.88
71107;BME280;58763;47.982;11.516;2023-04-07T06:58:06;93969.19;;;4.71;73.01
71107;BME280;58763;47.982;11.516;2023-04-07T07:00:31;93974.63;;;4.81;72.15
71107;BME280;58763;47.982;11.516;2023-04-07T07:02:57;93966.38;;;4.83;71.81
71107;BME280;58763;47.982;11.516;2023-04-07T07:05:23;93968.28;;;4.87;71.53
71107;BME280;58763;47.982;11.516;2023-04-07T07:07:49;93968.56;;;4.91;71.81
71107;BME280;58763;47.982;11.516;2023-04-07T07:10:14;93974.50;;;4.98;71.71
71107;BME280;58763;47.982;11.516;2023-04-07T07:12:40;93972.16;;;5.02;71.87
71107;BME280;58763;47.982;11.516;2023-04-07T07:15:06;93963.06;;;5.08;71.19
71107;BME280;58763;47.982;11.516;2023-04-07T07:17:33;93972.19;;;5.12;71.25
71107;BME280;58763;47.982;11.516;2023-04-07T07:19:58;93969.47;;;5.07;71.13
71107;BME280;58763;47.982;11.516;2023-04-07T07:22:24;93972.72;;;5.09;71.60
71107;BME280;58763;47.982;11.516;2023-04-07T07:24:50;93972.72;;;5.09;72.06
71107;BME280;58763;47.982;11.516;2023-04-07T07:27:16;93972.75;;;5.14;72.08
71107;BME280;58763;47.982;11.516;2023-04-07T07:29:41;93977.09;;;5.20;72.08
71107;BME280;58763;47.982;11.516;2023-04-07T07:32:07;93974.69;;;5.23;71.29
71107;BME280;58763;47.982;11.516;2023-04-07T07:34:33;93972.56;;;5.25;71.06
71107;BME280;58763;47.982;11.516;2023-04-07T07:36:58;93968.78;;;5.21;71.22
71107;BME280;58763;47.982;11.516;2023-04-07T07:39:25;93979.63;;;5.36;70.80
71107;BME280;58763;47.982;11.516;2023-04-07T07:41:51;93973.72;;;5.39;70.54
71107;BME280;58763;47.982;11.516;2023-04-07T07:44:17;93967.91;;;5.47;70.24
71107;BME280;58763;47.982;11.516;2023-04-07T07:46:44;93972.75;;;5.50;69.98
71107;BME280;58763;47.982;11.516;2023-04-07T07:49:10;93968.53;;;5.65;69.49
71107;BME280;58763;47.982;11.516;2023-04-07T07:51:36;93969.34;;;5.70;68.69
71107;BME280;58763;47.982;11.516;2023-04-07T07:54:02;93971.78;;;5.72;68.77
71107;BME280;58763;47.982;11.516;2023-04-07T07:56:27;93971.63;;;5.88;68.66
71107;BME280;58763;47.982;11.516;2023-04-07T07:58:53;93975.69;;;5.96;67.98
71107;BME280;58763;47.982;11.516;2023-04-07T08:01:19;93969.53;;;6.00;67.37
71107;BME280;58763;47.982;11.516;2023-04-07T08:03:45;93963.13;;;6.06;67.59
71107;BME280;58763;47.982;11.516;2023-04-07T08:06:11;93957.78;;;6.16;67.35
71107;BME280;58763;47.982;11.516;2023-04-07T08:08:37;93957.28;;;6.24;66.56
71107;BME280;58763;47.982;11.516;2023-04-07T08:11:03;93957.84;;;6.32;66.05
71107;BME280;58763;47.982;11.516;2023-04-07T08:13:28;93949.50;;;6.38;66.64
71107;BME280;58763;47.982;11.516;2023-04-07T08:15:55;93955.47;;;6.50;65.76
71107;BME280;58763;47.982;11.516;2023-04-07T08:18:21;93946.56;;;6.45;66.09
71107;BME280;58763;47.982;11.516;2023-04-07T08:20:47;93956.28;;;6.51;65.78
71107;BME280;58763;47.982;11.516;2023-04-07T08:23:13;93961.41;;;6.67;65.54
71107;BME280;58763;47.982;11.516;2023-04-07T08:25:38;93952.00;;;6.75;65.18
71107;BME280;58763;47.982;11.516;2023-04-07T08:28:06;93962.47;;;6.81;65.07
71107;BME280;58763;47.982;11.516;2023-04-07T08:30:32;93958.44;;;6.89;64.35
71107;BME280;58763;47.982;11.516;2023-04-07T08:32:58;93959.53;;;6.98;64.24
71107;BME280;58763;47.982;11.516;2023-04-07T08:35:23;93963.03;;;6.98;63.70
71107;BME280;58763;47.982;11.516;2023-04-07T08:37:49;93953.59;;;7.21;64.10
71107;BME280;58763;47.982;11.516;2023-04-07T08:40:15;93961.16;;;7.24;62.82
71107;BME280;58763;47.982;11.516;2023-04-07T08:42:45;93955.19;;;7.42;62.65
71107;BME280;58763;47.982;11.516;2023-04-07T08:45:12;93949.81;;;7.57;62.29
71107;BME280;58763;47.982;11.516;2023-04-07T08:47:39;93952.44;;;7.78;62.11
71107;BME280;58763;47.982;11.516;2023-04-07T08:50:10;93949.72;;;7.88;61.55
71107;BME280;58763;47.982;11.516;2023-04-07T08:52:43;93945.91;;;8.04;60.21
71107;BME280;58763;47.982;11.516;2023-04-07T08:55:10;93940.22;;;8.10;59.57
71107;BME280;58763;47.982;11.516;2023-04-07T08:57:36;93942.06;;;8.15;58.77
71107;BME280;58763;47.982;11.516;2023-04-07T09:00:04;93937.97;;;8.38;59.17
71107;BME280;58763;47.982;11.516;2023-04-07T09:02:35;93939.00;;;8.47;57.33
71107;BME280;58763;47.982;11.516;2023-04-07T09:05:06;93936.69;;;8.69;59.10
71107;BME280;58763;47.982;11.516;2023-04-07T09:07:36;93939.56;;;8.82;57.56
71107;BME280;58763;47.982;11.516;2023-04-07T09:10:02;93932.44;;;8.96;58.73
71107;BME280;58763;47.982;11.516;2023-04-07T09:12:29;93934.66;;;9.23;56.37
71107;BME280;58763;47.982;11.516;2023-04-07T09:14:54;93937.41;;;9.18;53.90
71107;BME280;58763;47.982;11.516;2023-04-07T09:17:21;93933.78;;;9.33;54.84
71107;BME280;58763;47.982;11.516;2023-04-07T09:19:47;93930.94;;;9.48;54.81
71107;BME280;58763;47.982;11.516;2023-04-07T09:22:13;93935.50;;;9.76;53.54
71107;BME280;58763;47.982;11.516;2023-04-07T09:24:40;93935.81;;;9.98;53.29
71107;BME280;58763;47.982;11.516;2023-04-07T09:29:41;93924.09;;;10.31;50.95
71107;BME280;58763;47.982;11.516;2023-04-07T09:32:08;93931.50;;;10.45;50.44
71107;BME280;58763;47.982;11.516;2023-04-07T09:34:36;93925.97;;;10.55;50.07
71107;BME280;58763;47.982;11.516;2023-04-07T09:37:02;93918.28;;;10.62;47.92
71107;BME280;58763;47.982;11.516;2023-04-07T09:39:29;93921.94;;;10.71;48.40
71107;BME280;58763;47.982;11.516;2023-04-07T09:41:56;93931.00;;;10.80;48.28
71107;BME280;58763;47.982;11.516;2023-04-07T09:44:23;93921.41;;;11.06;48.91
71107;BME280;58763;47.982;11.516;2023-04-07T09:46:51;93922.78;;;11.22;47.41
71107;BME280;58763;47.982;11.516;2023-04-07T09:49:18;93921.09;;;11.07;46.71
71107;BME280;58763;47.982;11.516;2023-04-07T09:51:59;93917.13;;;11.19;46.81
71107;BME280;58763;47.982;11.516;2023-04-07T09:54:36;93913.00;;;11.07;46.89
71107;BME280;58763;47.982;11.516;2023-04-07T09:57:03;93910.41;;;11.16;46.94
71107;BME280;58763;47.982;11.516;2023-04-07T09:59:30;93910.91;;;11.18;47.56
71107;BME280;58763;47.982;11.516;2023-04-07T10:01:57;93913.84;;;11.22;46.20
71107;BME280;58763;47.982;11.516;2023-04-07T10:04:26;93911.69;;;11.37;46.66
71107;BME280;58763;47.982;11.516;2023-04-07T10:06:53;93916.44;;;11.45;47.74
71107;BME280;58763;47.982;11.516;2023-04-07T10:09:23;93906.19;;;11.42;46.63
71107;BME280;58763;47.982;11.516;2023-04-07T10:11:50;93905.41;;;11.55;46.61
71107;BME280;58763;47.982;11.516;2023-04-07T10:14:17;93902.28;;;11.81;47.64
71107;BME280;58763;47.982;11.516;2023-04-07T10:16:45;93905.41;;;12.01;47.73
71107;BME280;58763;47.982;11.516;2023-04-07T10:19:11;93902.09;;;12.18;47.20
71107;BME280;58763;47.982;11.516;2023-04-07T10:21:39;93896.44;;;12.28;45.21
71107;BME280;58763;47.982;11.516;2023-04-07T10:26:52;93891.78;;;12.69;43.34
71107;BME280;58763;47.982;11.516;2023-04-07T10:29:19;93890.13;;;12.82;43.60
71107;BME280;58763;47.982;11.516;2023-04-07T10:31:46;93893.53;;;12.87;43.08
71107;BME280;58763;47.982;11.516;2023-04-07T10:34:12;93891.69;;;12.61;43.31
71107;BME280;58763;47.982;11.516;2023-04-07T10:37:11;93895.22;;;12.47;43.91
71107;BME280;58763;47.982;11.516;2023-04-07T10:39:38;93894.63;;;12.37;43.56
71107;BME280;58763;47.982;11.516;2023-04-07T10:42:04;93893.31;;;12.48;46.07
71107;BME280;58763;47.982;11.516;2023-04-07T10:47:07;93885.34;;;12.65;46.12
71107;BME280;58763;47.982;11.516;2023-04-07T10:49:33;93887.66;;;12.72;45.41
71107;BME280;58763;47.982;11.516;2023-04-07T10:54:38;93888.19;;;12.60;44.07
71107;BME280;58763;47.982;11.516;2023-04-07T10:57:13;93885.19;;;12.84;43.05
71107;BME280;58763;47.982;11.516;2023-04-07T10:59:41;93883.44;;;13.24;43.95
71107;BME280;58763;47.982;11.516;2023-04-07T11:04:37;93894.97;;;13.51;44.15
71107;BME280;58763;47.982;11.516;2023-04-07T11:07:03;93885.94;;;13.56;42.12
71107;BME280;58763;47.982;11.516;2023-04-07T11:09:29;93885.94;;;13.56;41.72
71107;BME280;58763;47.982;11.516;2023-04-07T11:11:54;93883.81;;;13.53;42.76
71107;BME280;58763;47.982;11.516;2023-04-07T11:14:25;93887.19;;;13.28;42.87
71107;BME280;58763;47.982;11.516;2023-04-07T11:16:51;93887.09;;;13.19;43.65
71107;BME280;58763;47.982;11.516;2023-04-07T11:19:18;93887.34;;;13.09;44.22
71107;BME280;58763;47.982;11.516;2023-04-07T11:21:43;93891.38;;;13.11;43.97
71107;BME280;58763;47.982;11.516;2023-04-07T11:24:09;93883.22;;;13.11;43.67
71107;BME280;58763;47.982;11.516;2023-04-07T11:26:41;93884.84;;;12.63;43.66
71107;BME280;58763;47.982;11.516;2023-04-07T11:29:06;93884.66;;;12.60;44.75
71107;BME280;58763;47.982;11.516;2023-04-07T11:31:32;93882.75;;;12.60;44.50
71107;BME280;58763;47.982;11.516;2023-04-07T11:34:03;93876.63;;;12.55;44.90
71107;BME280;58763;47.982;11.516;2023-04-07T11:36:47;93885.25;;;12.57;45.61
71107;BME280;58763;47.982;11.516;2023-04-07T11:39:20;93885.34;;;12.65;45.51
71107;BME280;58763;47.982;11.516;2023-04-07T11:41:48;93888.97;;;12.96;44.67
71107;BME280;58763;47.982;11.516;2023-04-07T11:44:14;93887.91;;;13.20;41.87
71107;BME280;58763;47.982;11.516;2023-04-07T11:49:22;93881.97;;;13.18;41.68
71107;BME280;58763;47.982;11.516;2023-04-07T11:51:57;93880.00;;;13.32;42.42
71107;BME280;58763;47.982;11.516;2023-04-07T11:54:22;93884.69;;;13.40;41.45
71107;BME280;58763;47.982;11.516;2023-04-07T11:56:48;93884.31;;;13.33;41.52
71107;BME280;58763;47.982;11.516;2023-04-07T11:59:20;93883.53;;;13.32;41.34
71107;BME280;58763;47.982;11.516;2023-04-07T12:01:48;93881.19;;;13.17;43.39
71107;BME280;58763;47.982;11.516;2023-04-07T12:04:15;93875.47;;;13.05;45.13
71107;BME280;58763;47.982;11.516;2023-04-07T12:06:42;93872.03;;;12.77;45.52
71107;BME280;58763;47.982;11.516;2023-04-07T12:09:24;93874.66;;;12.82;44.34
71107;BME280;58763;47.982;11.516;2023-04-07T12:11:52;93871.13;;;12.82;44.35
71107;BME280;58763;47.982;11.516;2023-04-07T12:14:17;93874.97;;;12.81;44.30
71107;BME280;58763;47.982;11.516;2023-04-07T12:16:43;93876.38;;;12.78;46.44
71107;BME280;58763;47.982;11.516;2023-04-07T12:19:12;93875.75;;;12.81;46.07
71107;BME280;58763;47.982;11.516;2023-04-07T12:21:37;93872.41;;;12.62;45.80
71107;BME280;58763;47.982;11.516;2023-04-07T12:24:03;93880.28;;;12.72;45.87
71107;BME280;58763;47.982;11.516;2023-04-07T12:26:30;93884.13;;;12.71;45.06
71107;BME280;58763;47.982;11.516;2023-04-07T12:28:56;93885.94;;;12.76;45.48
71107;BME280;58763;47.982;11.516;2023-04-07T12:31:23;93876.25;;;12.83;44.94
71107;BME280;58763;47.982;11.516;2023-04-07T12:33:48;93882.94;;;12.64;45.65
71107;BME280;58763;47.982;11.516;2023-04-07T12:36:14;93881.94;;;12.60;45.18
71107;BME280;58763;47.982;11.516;2023-04-07T12:38:40;93883.63;;;12.69;44.87
71107;BME280;58763;47.982;11.516;2023-04-07T12:41:06;93883.16;;;12.89;45.26
71107;BME280;58763;47.982;11.516;2023-04-07T12:43:33;93883.00;;;12.72;43.22
71107;BME280;58763;47.982;11.516;2023-04-07T12:45:59;93886.63;;;12.68;43.25
71107;BME280;58763;47.982;11.516;2023-04-07T12:48:24;93884.56;;;12.65;44.00
71107;BME280;58763;47.982;11.516;2023-04-07T12:50:51;93877.47;;;12.77;44.72
71107;BME280;58763;47.982;11.516;2023-04-07T12:53:17;93879.97;;;12.87;44.05
71107;BME280;58763;47.982;11.516;2023-04-07T12:55:43;93870.56;;;12.71;43.38
71107;BME280;58763;47.982;11.516;2023-04-07T12:58:09;93875.91;;;12.63;43.59
71107;BME280;58763;47.982;11.516;2023-04-07T13:00:34;93882.78;;;12.82;43.72
71107;BME280;58763;47.982;11.516;2023-04-07T13:03:01;93877.97;;;12.79;43.17
71107;BME280;58763;47.982;11.516;2023-04-07T13:05:28;93874.84;;;12.86;43.80
71107;BME280;58763;47.982;11.516;2023-04-07T13:07:53;93875.84;;;12.90;43.96
71107;BME280;58763;47.982;11.516;2023-04-07T13:10:19;93871.75;;;12.79;43.27
71107;BME280;58763;47.982;11.516;2023-04-07T13:12:45;93879.16;;;12.87;44.16
71107;BME280;58763;47.982;11.516;2023-04-07T13:15:11;93871.28;;;12.99;43.13
71107;BME280;58763;47.982;11.516;2023-04-07T13:17:37;93881.22;;;13.03;42.26
71107;BME280;58763;47.982;11.516;2023-04-07T13:20:04;93870.25;;;13.08;42.39